Terminal Aerodrome Forecast
Issued by NWS Wilmington, OH

Current Version | Previous Version | Graphics & Text | Print | Product List | Glossary On
Versions: 1 2 3 4 5 6 7 8 9 10 11 12 13 14 15 16 17 18 19 20 21 22 23 24 25 26 27
229
FTUS41 KILN 051436 AAA
TAFDAY
TAF AMD
KDAY 051436Z 0515/0612 34008KT P6SM SCT015 OVC025
      TEMPO 0515/0517 5SM -SHRA OVC015
     FM051800 01015G24KT P6SM VCSH BKN045
     FM060100 34008KT P6SM SCT045=

USA.gov is the U.S. government's official web portal to all federal, state and local government web resources and services.